Time;durP1;ratioP1;P1;durP2;ratioP2;P2;SDS_P1;SDS_P2;PMS_P1;PMS_P2;Temp;Humidity;BMP_temperature;BMP_pressure;BME280_temperature;BME280_humidity;BME280_pressure;Samples;Min_cycle;Max_cycle;Signal;HPM_P1;HPM_P2
2024/02/13 00:00:50;;;;;;;1.00;1.00;;;;;;;2.02;100.00;98410.53;4948223;29;20044;-95
2024/02/13 00:03:16;;;;;;;1.10;1.10;;;;;;;1.94;100.00;98411.81;4954067;28;20056;-94
2024/02/13 00:05:43;;;;;;;1.08;1.08;;;;;;;1.98;100.00;98411.19;4939619;29;20043;-95
2024/02/13 00:08:10;;;;;;;1.00;1.00;;;;;;;2.02;100.00;98413.16;4940527;29;20110;-95
2024/02/13 00:10:36;;;;;;;1.10;1.10;;;;;;;1.95;100.00;98416.25;4942906;29;20043;-93
2024/02/13 00:13:03;;;;;;;1.00;1.00;;;;;;;1.86;100.00;98427.13;4952808;28;20135;-94
2024/02/13 00:15:28;;;;;;;1.10;1.10;;;;;;;1.97;100.00;98433.03;4938369;29;20082;-93
2024/02/13 00:17:56;;;;;;;1.00;1.00;;;;;;;2.10;100.00;98432.00;4953213;28;20048;-93
2024/02/13 00:20:23;;;;;;;1.02;1.02;;;;;;;2.11;100.00;98434.75;4928762;29;20042;-93
2024/02/13 00:22:52;;;;;;;1.00;1.00;;;;;;;1.96;100.00;98445.25;4943423;29;20081;-94
2024/02/13 00:25:18;;;;;;;1.08;1.08;;;;;;;1.91;100.00;98449.34;4944420;29;20067;-95
2024/02/13 00:27:44;;;;;;;1.00;1.00;;;;;;;1.90;100.00;98449.28;4936723;29;20051;-95
2024/02/13 00:30:12;;;;;;;0.98;0.98;;;;;;;2.13;100.00;98456.78;4941978;29;20122;-94
2024/02/13 00:32:37;;;;;;;1.02;1.02;;;;;;;2.15;100.00;98463.03;4936668;29;20028;-93
2024/02/13 00:35:08;;;;;;;1.00;1.00;;;;;;;2.28;100.00;98465.53;4934792;29;20052;-93
2024/02/13 00:37:39;;;;;;;1.00;1.00;;;;;;;2.26;100.00;98464.56;4937150;29;20122;-94
2024/02/13 00:40:09;;;;;;;0.90;0.90;;;;;;;2.34;100.00;98474.59;4952838;28;20152;-94
2024/02/13 00:42:38;;;;;;;1.00;1.00;;;;;;;2.34;100.00;98474.59;4935135;29;20054;-92
2024/02/13 00:45:07;;;;;;;1.00;1.00;;;;;;;2.29;99.92;98469.97;4948579;28;20035;-91
2024/02/13 01:47:01;;;;;;;0.90;0.90;;;;;;;3.29;96.70;98573.94;5831359;23;20765;-94
2024/02/13 01:49:28;;;;;;;1.00;1.00;;;;;;;3.15;96.01;98571.34;4979485;28;20062;-95
2024/02/13 01:51:59;;;;;;;1.00;1.00;;;;;;;3.17;96.29;98572.38;4977466;28;20031;-95
2024/02/13 01:54:26;;;;;;;0.90;0.90;;;;;;;3.28;96.01;98577.38;4972492;28;20442;-94
2024/02/13 01:56:53;;;;;;;0.90;0.90;;;;;;;3.26;96.54;98583.41;4981842;28;20098;-95
2024/02/13 01:59:20;;;;;;;0.80;0.80;;;;;;;3.23;96.55;98584.13;4961586;28;20070;-94
2024/02/13 02:01:48;;;;;;;0.80;0.80;;;;;;;3.22;96.19;98587.59;4959886;28;20089;-95
2024/02/13 02:04:15;;;;;;;0.90;0.90;;;;;;;3.22;96.01;98579.69;4968773;28;20065;-96
2024/02/13 02:06:43;;;;;;;1.00;1.00;;;;;;;3.19;95.75;98587.44;4980276;28;20035;-95
2024/02/13 02:09:09;;;;;;;1.00;1.00;;;;;;;3.26;95.66;98594.88;4977976;28;20058;-95
2024/02/13 02:11:35;;;;;;;0.82;0.82;;;;;;;3.20;96.10;98594.50;4980951;28;20032;-96
2024/02/13 02:14:01;;;;;;;0.90;0.90;;;;;;;3.20;96.29;98589.22;4965477;28;20389;-95
2024/02/13 02:16:27;;;;;;;0.93;0.93;;;;;;;3.20;96.26;98594.50;4976518;28;20035;-96
2024/02/13 02:18:54;;;;;;;1.00;1.00;;;;;;;3.22;95.92;98599.88;4967115;28;20039;-94
2024/02/13 02:21:20;;;;;;;0.95;0.95;;;;;;;3.13;96.45;98594.09;4976766;28;20129;-94
2024/02/13 02:23:50;;;;;;;0.90;0.90;;;;;;;3.23;96.32;98605.22;4981112;28;20038;-94
2024/02/13 02:26:20;;;;;;;0.85;0.85;;;;;;;3.33;95.74;98610.19;4989724;28;20011;-94
2024/02/13 02:28:49;;;;;;;0.90;0.90;;;;;;;3.33;95.60;98606.66;4999330;28;20071;-94
2024/02/13 02:31:18;;;;;;;1.00;1.00;;;;;;;3.24;96.10;98600.88;4966047;28;20034;-95
2024/02/13 02:33:46;;;;;;;0.90;0.90;;;;;;;3.24;96.27;98609.69;4973460;28;20085;-95
2024/02/13 02:36:12;;;;;;;0.90;0.90;;;;;;;3.17;96.27;98610.19;4951988;28;20065;-94
2024/02/13 02:38:38;;;;;;;1.00;1.00;;;;;;;3.13;96.42;98595.00;4950581;28;20272;-94
2024/02/13 02:41:06;;;;;;;0.95;0.95;;;;;;;3.13;96.71;98604.66;4989319;28;20281;-94
2024/02/13 02:43:37;;;;;;;0.90;0.90;;;;;;;3.11;96.90;98611.53;4981023;28;20024;-94
2024/02/13 02:46:05;;;;;;;0.90;0.90;;;;;;;3.16;96.75;98616.25;4995422;28;20065;-93
2024/02/13 02:48:31;;;;;;;0.82;0.82;;;;;;;3.27;96.82;98619.50;4985768;28;20050;-93
2024/02/13 03:23:20;;;;;;;1.00;1.00;;;;;;;1.96;99.59;98657.47;5298522;23;20083;-94
2024/02/13 03:25:46;;;;;;;0.90;0.90;;;;;;;1.81;100.00;98662.69;4987472;28;20039;-94
2024/02/13 03:28:11;;;;;;;0.98;0.98;;;;;;;1.84;100.00;98669.88;4988456;28;20035;-94
2024/02/13 03:30:37;;;;;;;0.90;0.90;;;;;;;2.01;100.00;98659.59;4973530;28;20090;-93
2024/02/13 03:33:03;;;;;;;1.00;1.00;;;;;;;2.29;100.00;98670.03;4977095;28;20020;-93
2024/02/13 03:35:30;;;;;;;0.90;0.90;;;;;;;2.46;100.00;98675.41;4988763;28;20209;-93
2024/02/13 03:37:56;;;;;;;1.10;1.10;;;;;;;2.57;100.00;98672.59;4991152;28;20059;-93
2024/02/13 03:40:22;;;;;;;1.00;1.00;;;;;;;2.47;100.00;98680.75;5004114;28;20047;-94
2024/02/13 03:42:47;;;;;;;1.00;1.00;;;;;;;2.36;100.00;98681.84;4969047;28;20035;-95
2024/02/13 03:45:13;;;;;;;1.00;1.00;;;;;;;2.50;100.00;98680.06;4982201;28;20039;-94
2024/02/13 03:47:40;;;;;;;0.90;0.90;;;;;;;2.64;100.00;98679.16;4970230;28;20050;-95
2024/02/13 03:50:06;;;;;;;1.10;1.10;;;;;;;2.78;100.00;98686.13;4982353;28;20050;-96
2024/02/13 03:52:35;;;;;;;1.00;1.00;;;;;;;2.85;100.00;98681.22;4977563;28;20031;-95
2024/02/13 03:55:05;;;;;;;0.98;0.98;;;;;;;2.89;100.00;98681.47;4979953;28;20043;-95
2024/02/13 03:57:31;;;;;;;0.90;0.90;;;;;;;2.99;99.02;98688.19;4982163;28;20031;-93
2024/02/13 03:59:57;;;;;;;1.00;1.00;;;;;;;2.87;99.08;98677.84;4990439;28;20035;-96
2024/02/13 04:02:23;;;;;;;1.00;1.00;;;;;;;2.93;98.43;98685.22;4958900;28;20098;-96
2024/02/13 04:04:49;;;;;;;1.00;1.00;;;;;;;3.03;97.89;98691.09;4943517;28;20054;-96
2024/02/13 04:07:15;;;;;;;1.00;1.00;;;;;;;3.02;97.41;98691.91;4962389;28;20098;-94
2024/02/13 04:09:42;;;;;;;1.00;1.00;;;;;;;2.93;97.97;98688.75;4984480;28;20050;-95
2024/02/13 04:12:09;;;;;;;1.00;1.00;;;;;;;2.86;98.23;98688.28;4974766;28;20046;-95
2024/02/13 04:14:37;;;;;;;1.00;1.00;;;;;;;2.83;98.59;98692.59;4956088;28;20032;-95
2024/02/13 04:17:04;;;;;;;0.93;0.93;;;;;;;2.94;98.43;98684.38;4959785;28;20090;-96
2024/02/13 04:19:30;;;;;;;0.90;0.90;;;;;;;2.91;97.98;98693.00;4986962;28;20031;-95
2024/02/13 04:21:55;;;;;;;0.90;0.90;;;;;;;2.88;98.27;98691.94;4962102;28;20039;-94
2024/02/13 04:24:22;;;;;;;1.00;1.00;;;;;;;2.94;98.31;98700.19;4980734;28;20032;-93
2024/02/13 04:26:47;;;;;;;1.00;1.00;;;;;;;3.03;98.49;98703.38;4994728;28;20031;-95
2024/02/13 04:29:13;;;;;;;0.90;0.90;;;;;;;3.01;98.42;98703.25;4945762;28;20731;-96
2024/02/13 04:31:39;;;;;;;0.90;0.90;;;;;;;3.06;98.41;98698.25;4955058;28;20053;-95
2024/02/13 04:34:06;;;;;;;1.00;1.00;;;;;;;3.06;97.94;98704.44;4981209;28;20129;-95
2024/02/13 04:36:32;;;;;;;0.90;0.90;;;;;;;2.96;97.86;98703.81;4975990;28;20178;-95
2024/02/13 04:38:58;;;;;;;0.90;0.90;;;;;;;3.04;97.88;98703.44;4954753;28;20035;-96
2024/02/13 04:41:24;;;;;;;1.00;1.00;;;;;;;2.96;97.84;98709.09;4971596;28;20074;-96
2024/02/13 04:43:52;;;;;;;0.90;0.90;;;;;;;2.86;98.20;98702.38;4967406;28;20042;-96
2024/02/13 04:46:24;;;;;;;0.90;0.90;;;;;;;2.73;98.39;98706.03;4966379;28;20039;-96
2024/02/13 04:48:52;;;;;;;0.90;0.90;;;;;;;2.67;98.61;98710.91;4966541;28;20121;-95
2024/02/13 04:51:18;;;;;;;0.90;0.90;;;;;;;2.68;98.64;98707.47;4960383;28;20520;-96
2024/02/13 04:53:44;;;;;;;1.00;1.00;;;;;;;2.91;98.98;98706.19;4983571;28;20054;-95
2024/02/13 04:56:10;;;;;;;1.00;1.00;;;;;;;2.98;98.96;98708.38;4954912;28;20506;-95
2024/02/13 04:58:39;;;;;;;0.90;0.90;;;;;;;3.00;98.55;98711.09;4955018;28;20057;-95
2024/02/13 05:01:08;;;;;;;0.90;0.90;;;;;;;3.06;98.70;98711.44;4966385;28;20023;-93
2024/02/13 05:08:58;;;;;;;0.93;0.93;;;;;;;3.25;97.54;98724.84;4975043;28;20430;-94
2024/02/13 05:11:24;;;;;;;1.00;1.00;;;;;;;3.41;97.21;98717.84;4954645;28;20082;-94
2024/02/13 05:13:50;;;;;;;0.80;0.80;;;;;;;3.49;96.82;98724.44;4952313;28;20138;-95
2024/02/13 05:16:19;;;;;;;0.90;0.90;;;;;;;3.43;96.80;98718.81;4973145;28;20038;-95
2024/02/13 05:18:46;;;;;;;0.80;0.80;;;;;;;3.46;96.56;98716.38;4971057;28;20057;-96
2024/02/13 05:21:13;;;;;;;0.90;0.90;;;;;;;3.34;96.39;98720.09;4970638;28;20027;-95
2024/02/13 05:23:40;;;;;;;1.00;1.00;;;;;;;3.41;96.76;98715.22;4972600;28;20379;-96
2024/02/13 05:26:08;;;;;;;0.90;0.90;;;;;;;3.42;96.44;98711.75;4989953;28;20335;-96
2024/02/13 05:28:39;;;;;;;0.90;0.90;;;;;;;3.34;96.26;98717.47;4978025;28;20312;-95
2024/02/13 05:31:05;;;;;;;0.95;0.95;;;;;;;3.20;96.76;98720.13;4982934;28;20560;-95
2024/02/13 05:33:35;;;;;;;0.90;0.90;;;;;;;3.25;96.44;98713.41;4980024;28;20042;-94
2024/02/13 05:36:09;;;;;;;0.90;0.90;;;;;;;3.21;96.70;98717.63;4984746;28;20062;-96
2024/02/13 05:38:44;;;;;;;0.80;0.80;;;;;;;3.15;96.84;98713.69;4979863;28;20039;-95
2024/02/13 05:41:11;;;;;;;0.80;0.80;;;;;;;3.15;96.89;98721.59;5000341;28;20010;-94
2024/02/13 05:43:56;;;;;;;0.90;0.90;;;;;;;3.31;96.60;98719.03;4981879;28;20049;-94
2024/02/13 05:46:22;;;;;;;0.90;0.90;;;;;;;3.29;96.13;98713.66;4964535;28;20023;-93
2024/02/13 05:48:53;;;;;;;1.00;1.00;;;;;;;3.24;96.44;98730.03;4981545;28;20729;-96
2024/02/13 05:51:19;;;;;;;0.88;0.88;;;;;;;3.27;96.48;98724.97;4995337;28;20073;-95
2024/02/13 05:53:45;;;;;;;1.00;1.00;;;;;;;3.29;96.36;98723.31;4965680;28;20034;-93
2024/02/13 05:56:14;;;;;;;1.00;1.00;;;;;;;3.24;96.44;98727.41;4974932;28;20038;-95
2024/02/13 05:58:39;;;;;;;0.90;0.90;;;;;;;3.26;96.30;98726.69;4972202;28;20042;-94
2024/02/13 06:01:05;;;;;;;0.90;0.90;;;;;;;3.28;96.40;98734.69;4956872;28;20046;-95
2024/02/13 06:03:32;;;;;;;1.00;1.00;;;;;;;3.26;96.35;98739.88;4967872;28;20047;-96
2024/02/13 06:05:59;;;;;;;0.80;0.80;;;;;;;3.16;96.59;98740.13;4972253;28;20175;-96
2024/02/13 06:08:25;;;;;;;0.90;0.90;;;;;;;3.14;96.62;98741.78;4973467;28;20103;-95
2024/02/13 06:10:51;;;;;;;0.90;0.90;;;;;;;3.21;97.01;98740.41;4975523;28;20129;-94
2024/02/13 06:13:17;;;;;;;1.00;1.00;;;;;;;3.24;96.80;98744.13;4963909;28;20074;-94
2024/02/13 06:15:44;;;;;;;0.90;0.90;;;;;;;3.34;96.80;98751.75;4969999;28;20039;-94
2024/02/13 06:18:11;;;;;;;0.90;0.90;;;;;;;3.30;96.48;98755.03;4965507;28;20054;-96
2024/02/13 06:20:37;;;;;;;0.90;0.90;;;;;;;3.27;96.55;98746.97;4976606;28;20126;-95
2024/02/13 06:23:06;;;;;;;0.80;0.80;;;;;;;3.28;96.54;98745.22;4976845;28;20026;-95
2024/02/13 06:25:32;;;;;;;1.00;1.00;;;;;;;3.26;96.99;98757.44;4961476;28;20102;-94
2024/02/13 06:28:01;;;;;;;1.00;1.00;;;;;;;3.36;96.93;98758.88;4977783;28;20018;-96
2024/02/13 06:30:31;;;;;;;0.90;0.90;;;;;;;3.25;96.96;98753.84;4981567;28;20092;-95
2024/02/13 06:32:57;;;;;;;0.90;0.90;;;;;;;3.29;97.19;98765.50;4963186;28;20038;-94
2024/02/13 06:35:23;;;;;;;0.90;0.90;;;;;;;3.46;96.61;98771.75;4976597;28;20034;-95
2024/02/13 06:37:49;;;;;;;1.00;1.00;;;;;;;3.38;96.45;98778.31;4968201;28;20031;-95
2024/02/13 06:40:17;;;;;;;;;;;;;;;3.48;96.39;98781.56;4978715;28;20041;-94
2024/02/13 06:42:44;;;;;;;1.00;1.00;;;;;;;3.50;95.94;98785.22;4979140;28;19926;-96
2024/02/13 06:45:12;;;;;;;1.00;1.00;;;;;;;3.46;95.96;98787.59;4946608;28;20647;-96
2024/02/13 06:47:38;;;;;;;1.00;1.00;;;;;;;3.38;96.53;98783.59;4970355;28;20038;-95
2024/02/13 06:50:11;;;;;;;1.00;1.00;;;;;;;3.45;96.89;98785.72;4964852;28;20089;-95
2024/02/13 06:52:39;;;;;;;0.90;0.90;;;;;;;3.47;96.86;98787.66;4978209;28;20049;-94
2024/02/13 06:55:07;;;;;;;0.95;0.95;;;;;;;3.40;97.36;98792.47;4958057;28;20035;-94
2024/02/13 06:57:35;;;;;;;0.90;0.90;;;;;;;3.39;97.47;98794.22;4954345;28;20038;-93
2024/02/13 07:00:09;;;;;;;0.90;0.90;;;;;;;3.45;97.75;98799.84;4968932;28;20072;-94
2024/02/13 07:02:35;;;;;;;0.90;0.90;;;;;;;3.56;97.30;98803.09;4974854;28;20038;-93
2024/02/13 07:05:01;;;;;;;0.90;0.90;;;;;;;3.56;97.12;98811.94;4967644;28;20117;-94
2024/02/13 07:07:27;;;;;;;0.90;0.90;;;;;;;3.76;96.61;98805.16;4961543;28;20027;-94
2024/02/13 07:09:54;;;;;;;0.90;0.90;;;;;;;3.78;96.33;98814.03;4968972;28;20042;-95
2024/02/13 07:12:20;;;;;;;1.00;1.00;;;;;;;3.86;96.29;98809.22;4955112;28;20027;-93
2024/02/13 07:14:48;;;;;;;;;;;;;;;3.81;96.16;98808.03;4967531;28;20042;-95
2024/02/13 07:17:14;;;;;;;1.08;1.08;;;;;;;3.91;96.18;98810.38;4957744;28;20431;-95
2024/02/13 07:19:44;;;;;;;0.90;0.90;;;;;;;3.97;96.01;98817.72;4984973;28;20086;-94
2024/02/13 07:22:10;;;;;;;0.90;0.90;;;;;;;3.92;94.84;98812.19;4964778;28;20042;-93
2024/02/13 07:24:36;;;;;;;0.80;0.80;;;;;;;4.05;94.98;98816.44;4986179;28;20026;-92
2024/02/13 07:27:04;;;;;;;0.90;0.90;;;;;;;4.17;94.34;98822.41;4983843;28;20019;-94
2024/02/13 07:29:39;;;;;;;0.80;0.80;;;;;;;4.17;94.41;98821.47;4991850;28;20039;-93
2024/02/13 07:32:07;;;;;;;0.90;0.90;;;;;;;4.36;93.94;98835.81;4963187;28;20031;-95
2024/02/13 07:34:37;;;;;;;0.90;0.90;;;;;;;4.50;93.07;98831.25;4991762;28;20078;-93
2024/02/13 07:37:05;;;;;;;0.90;0.90;;;;;;;4.55;92.37;98836.78;4973148;28;20066;-94
2024/02/13 07:39:30;;;;;;;0.80;0.80;;;;;;;4.56;92.12;98841.25;4975424;28;20039;-94
2024/02/13 07:41:57;;;;;;;0.80;0.80;;;;;;;4.74;90.90;98839.59;4960420;28;20053;-95
2024/02/13 07:44:24;;;;;;;0.80;0.80;;;;;;;4.78;90.65;98846.84;4968740;28;20122;-93
2024/02/13 07:46:50;;;;;;;0.80;0.80;;;;;;;4.81;90.05;98846.13;4965210;28;20049;-95
2024/02/13 07:49:16;;;;;;;0.80;0.80;;;;;;;4.90;89.37;98851.91;4972653;28;20133;-93
2024/02/13 07:51:44;;;;;;;0.90;0.90;;;;;;;4.96;88.59;98853.97;4976678;28;20038;-94
2024/02/13 07:54:12;;;;;;;0.90;0.90;;;;;;;5.05;88.27;98843.88;4992467;28;20594;-94
2024/02/13 07:56:40;;;;;;;;;;;;;;;5.12;87.82;98844.25;4969983;28;20050;-95
2024/02/13 07:59:06;;;;;;;0.80;0.80;;;;;;;5.09;87.37;98846.75;4963918;28;19961;-95
2024/02/13 08:01:33;;;;;;;0.88;0.88;;;;;;;5.01;87.97;98849.81;4966270;28;20438;-94
2024/02/13 08:04:00;;;;;;;0.90;0.90;;;;;;;5.07;88.44;98851.03;4977448;28;20049;-94
2024/02/13 08:06:28;;;;;;;0.90;0.90;;;;;;;5.27;88.13;98845.88;4976175;28;20146;-93
2024/02/13 08:08:54;;;;;;;0.90;0.90;;;;;;;5.40;88.04;98846.59;4995938;28;20268;-93
2024/02/13 08:11:21;;;;;;;0.90;0.90;;;;;;;5.27;88.41;98846.81;4981375;28;20027;-95
2024/02/13 08:13:50;;;;;;;0.80;0.80;;;;;;;5.37;88.98;98842.91;4979794;28;20062;-94
2024/02/13 08:16:19;;;;;;;0.90;0.90;;;;;;;5.64;88.52;98846.91;4966740;28;20054;-94
2024/02/13 08:18:48;;;;;;;0.80;0.80;;;;;;;6.00;87.15;98839.03;4982348;28;20022;-93
2024/02/13 08:21:13;;;;;;;0.80;0.80;;;;;;;6.04;86.66;98848.94;4972561;28;20027;-93
2024/02/13 08:23:39;;;;;;;0.88;0.88;;;;;;;6.12;86.52;98844.91;4985975;28;20079;-93
2024/02/13 08:26:10;;;;;;;0.80;0.80;;;;;;;6.11;86.43;98842.19;4985759;28;20114;-92
2024/02/13 08:28:38;;;;;;;0.80;0.80;;;;;;;6.31;85.89;98835.19;4967849;28;20034;-91
2024/02/13 08:31:03;;;;;;;;;;;;;;;6.20;85.85;98842.63;4989619;28;20051;-95
2024/02/13 08:33:29;;;;;;;0.88;0.88;;;;;;;6.36;85.49;98842.50;4976596;28;19906;-94
2024/02/13 08:35:57;;;;;;;0.75;0.75;;;;;;;6.23;84.90;98847.16;4988097;28;20042;-93
2024/02/13 08:38:22;;;;;;;0.90;0.90;;;;;;;6.77;83.16;98847.94;4966449;28;20460;-93
2024/02/13 08:40:48;;;;;;;0.70;0.70;;;;;;;6.67;83.07;98846.63;4966654;28;20039;-94
2024/02/13 09:12:56;;;;;;;0.90;0.90;;;;;;;8.32;75.49;98866.09;5490442;23;20054;-95
2024/02/13 10:09:17;;;;;;;0.20;0.20;;;;;;;12.64;54.52;98862.06;5073717;23;20563;-94
2024/02/13 10:25:11;;;;;;;0.50;0.50;;;;;;;15.28;46.87;98849.81;5076666;23;20134;-94
2024/02/13 10:27:37;;;;;;;0.50;0.50;;;;;;;15.81;45.79;98846.84;4972256;28;20061;-94
2024/02/13 10:30:06;;;;;;;0.40;0.40;;;;;;;16.28;44.83;98851.78;4987213;28;20038;-94
2024/02/13 10:32:38;;;;;;;0.40;0.40;;;;;;;16.33;43.80;98844.66;4989676;28;20057;-94
2024/02/13 10:35:08;;;;;;;0.30;0.30;;;;;;;18.34;40.28;98849.13;4984221;28;20037;-94
2024/02/13 10:37:43;;;;;;;0.30;0.30;;;;;;;17.52;40.26;98850.75;4991651;28;20114;-95
2024/02/13 10:40:28;;;;;;;0.30;0.30;;;;;;;14.68;45.42;98857.09;4991123;28;20054;-93
2024/02/13 10:42:55;;;;;;;0.30;0.30;;;;;;;16.09;43.89;98848.94;4977629;28;20067;-94
2024/02/13 10:45:33;;;;;;;0.40;0.40;;;;;;;13.89;49.04;98859.31;4978222;28;20007;-95
2024/02/13 10:48:30;;;;;;;0.40;0.40;;;;;;;14.97;46.23;98851.22;4980946;28;20031;-92
2024/02/13 10:51:00;;;;;;;0.40;0.40;;;;;;;15.47;44.35;98851.84;4985947;28;20055;-91
2024/02/13 10:53:34;;;;;;;0.40;0.40;;;;;;;16.06;43.71;98848.91;4997388;28;20042;-93
2024/02/13 11:01:21;;;;;;;0.30;0.30;;;;;;;17.67;40.27;98839.09;5132342;23;20149;-96
2024/02/13 11:03:50;;;;;;;0.35;0.35;;;;;;;16.94;41.50;98839.72;4979403;28;20039;-93
2024/02/13 11:06:15;;;;;;;0.30;0.30;;;;;;;18.41;40.97;98842.81;4971901;28;20059;-95
2024/02/13 11:08:41;;;;;;;0.20;0.20;;;;;;;17.69;40.41;98840.91;4990492;28;20058;-95
2024/02/13 11:11:17;;;;;;;0.30;0.30;;;;;;;15.99;44.36;98844.34;4991558;28;20060;-93
2024/02/13 11:13:43;;;;;;;0.35;0.35;;;;;;;16.04;45.41;98845.28;4975699;28;20045;-90
2024/02/13 11:16:13;;;;;;;0.40;0.40;;;;;;;15.01;46.46;98858.44;4975982;28;20050;-94
2024/02/13 11:18:51;;;;;;;0.40;0.40;;;;;;;15.80;45.65;98853.13;4962756;28;20057;-92
2024/02/13 11:21:21;;;;;;;0.40;0.40;;;;;;;14.65;47.84;98854.34;4980078;28;20089;-94
2024/02/13 11:24:01;;;;;;;0.30;0.30;;;;;;;13.99;49.49;98855.00;4978040;28;20070;-93
2024/02/13 11:26:36;;;;;;;0.40;0.40;;;;;;;14.69;48.66;98849.94;4977089;28;20043;-92
2024/02/13 11:29:11;;;;;;;0.30;0.30;;;;;;;13.14;50.98;98854.25;4977107;28;20039;-93
2024/02/13 11:31:37;;;;;;;0.30;0.30;;;;;;;11.91;55.44;98858.50;4974685;28;20123;-94
2024/02/13 11:34:08;;;;;;;0.40;0.40;;;;;;;11.30;57.60;98861.28;4978624;28;20540;-93
2024/02/13 11:36:34;;;;;;;0.40;0.40;;;;;;;11.11;58.94;98863.41;4977002;28;20069;-94
2024/02/13 11:39:06;;;;;;;0.70;0.70;;;;;;;14.16;50.83;98848.16;4975804;28;20015;-92
2024/02/13 11:41:34;;;;;;;0.70;0.70;;;;;;;15.44;47.58;98842.88;4960577;28;20052;-91
2024/02/13 11:44:08;;;;;;;0.40;0.40;;;;;;;15.48;45.43;98840.22;4972241;28;20037;-91
2024/02/13 11:46:37;;;;;;;0.40;0.40;;;;;;;14.43;47.82;98837.00;4998808;28;20039;-90
2024/02/13 11:49:07;;;;;;;0.40;0.40;;;;;;;14.02;49.41;98834.53;4985951;28;20049;-92
2024/02/13 11:51:36;;;;;;;0.40;0.40;;;;;;;13.48;49.88;98839.78;4977167;28;20106;-94
2024/02/13 11:54:05;;;;;;;0.60;0.60;;;;;;;14.93;47.99;98836.84;4977634;28;20026;-94
2024/02/13 11:56:30;;;;;;;0.30;0.30;;;;;;;15.48;44.89;98823.19;4981487;28;20621;-95
2024/02/13 11:59:02;;;;;;;0.40;0.40;;;;;;;16.96;41.99;98816.38;4977734;28;20035;-95
2024/02/13 12:01:33;;;;;;;0.40;0.40;;;;;;;18.07;39.31;98818.53;4970586;28;20065;-95
2024/02/13 12:04:00;;;;;;;0.40;0.40;;;;;;;18.67;38.15;98818.47;4972525;28;20042;-95
2024/02/13 12:06:27;;;;;;;0.40;0.40;;;;;;;16.50;39.76;98816.06;4965993;28;20069;-93
2024/02/13 12:08:54;;;;;;;0.50;0.50;;;;;;;15.92;41.29;98812.00;4979429;28;21017;-92
2024/02/13 12:11:21;;;;;;;0.50;0.50;;;;;;;17.13;39.10;98806.56;4974326;28;20098;-94
2024/02/13 12:13:47;;;;;;;0.40;0.40;;;;;;;16.62;39.31;98805.38;4976246;28;20289;-91
2024/02/13 12:16:14;;;;;;;0.40;0.40;;;;;;;17.07;38.81;98802.94;4981197;28;20362;-94
2024/02/13 12:18:44;;;;;;;0.40;0.40;;;;;;;17.24;38.23;98797.59;4977716;28;20043;-93
2024/02/13 12:21:14;;;;;;;0.40;0.40;;;;;;;17.10;37.53;98800.25;4965005;28;20180;-92
2024/02/13 12:23:44;;;;;;;0.40;0.40;;;;;;;17.31;36.93;98803.03;4975968;28;20138;-92
2024/02/13 12:26:11;;;;;;;0.30;0.30;;;;;;;16.74;38.06;98791.09;4974876;28;20049;-93
2024/02/13 12:28:37;;;;;;;0.50;0.50;;;;;;;16.87;38.67;98792.06;4963849;28;20074;-91
2024/02/13 12:31:05;;;;;;;0.40;0.40;;;;;;;18.88;34.79;98788.72;4992240;28;20023;-93
2024/02/13 12:33:32;;;;;;;0.50;0.50;;;;;;;17.74;36.63;98791.50;4994379;28;20053;-91
2024/02/13 12:36:01;;;;;;;0.40;0.40;;;;;;;18.26;35.11;98788.81;4987023;28;20030;-89
2024/02/13 12:38:29;;;;;;;0.40;0.40;;;;;;;18.70;34.74;98788.78;4982587;28;20073;-92
2024/02/13 12:40:55;;;;;;;0.50;0.50;;;;;;;18.36;34.14;98796.00;4952439;28;20039;-91
2024/02/13 12:43:27;;;;;;;0.43;0.43;;;;;;;17.61;35.75;98783.31;4972479;28;20030;-94
2024/02/13 12:45:55;;;;;;;0.40;0.40;;;;;;;17.47;35.45;98787.78;4983094;28;20089;-93
2024/02/13 12:48:22;;;;;;;0.38;0.38;;;;;;;17.35;35.11;98790.47;4967193;28;20527;-91
2024/02/13 12:50:48;;;;;;;;;;;;;;;16.45;37.28;98788.19;4985195;28;20058;-91
2024/02/13 12:53:18;;;;;;;0.60;0.60;;;;;;;17.30;36.07;98789.56;4993178;28;19969;-90
2024/02/13 12:55:43;;;;;;;0.50;0.50;;;;;;;17.52;34.13;98786.00;4986557;28;20026;-90
2024/02/13 12:58:17;;;;;;;0.50;0.50;;;;;;;18.11;34.73;98773.50;5005762;28;20031;-90
2024/02/13 13:00:45;;;;;;;0.50;0.50;;;;;;;18.79;33.83;98768.94;4995539;28;20023;-91
2024/02/13 13:03:14;;;;;;;0.50;0.50;;;;;;;20.05;32.37;98759.22;4994115;28;20054;-90
2024/02/13 13:05:42;;;;;;;0.40;0.40;;;;;;;19.69;32.49;98768.50;4987107;28;20042;-89
2024/02/13 13:08:14;;;;;;;0.40;0.40;;;;;;;18.35;33.80;98776.19;4990163;28;20047;-88
2024/02/13 13:10:40;;;;;;;0.40;0.40;;;;;;;18.06;33.71;98767.19;4984998;28;20074;-91
2024/02/13 13:13:06;;;;;;;0.40;0.40;;;;;;;17.69;34.79;98768.06;4968724;28;20027;-91
2024/02/13 13:15:35;;;;;;;0.50;0.50;;;;;;;18.79;33.24;98772.53;4981514;28;20039;-92
2024/02/13 13:18:02;;;;;;;0.43;0.43;;;;;;;18.63;33.68;98768.91;4984887;28;20039;-93
2024/02/13 13:20:30;;;;;;;0.50;0.50;;;;;;;18.95;31.88;98771.56;4982780;28;20070;-91
2024/02/13 13:22:57;;;;;;;0.40;0.40;;;;;;;18.45;33.37;98777.09;4996162;28;20054;-93
2024/02/13 13:25:31;;;;;;;0.40;0.40;;;;;;;18.78;33.19;98767.13;4977040;28;20106;-95
2024/02/13 13:28:05;;;;;;;0.38;0.38;;;;;;;18.29;33.92;98772.59;4982720;28;20098;-93
2024/02/13 13:30:38;;;;;;;0.30;0.30;;;;;;;16.99;35.10;98777.75;4977928;28;20034;-92
2024/02/13 13:33:10;;;;;;;0.60;0.60;;;;;;;16.77;36.23;98776.72;4966707;28;20549;-93
2024/02/13 13:35:37;;;;;;;0.30;0.30;;;;;;;14.46;39.59;98793.16;4975253;28;20097;-92
2024/02/13 13:38:03;;;;;;;0.60;0.60;;;;;;;16.14;36.34;98785.31;4955656;28;20429;-90
2024/02/13 13:40:37;;;;;;;0.50;0.50;;;;;;;15.52;37.17;98796.34;4988558;28;20045;-93
2024/02/13 13:43:18;;;;;;;0.50;0.50;;;;;;;15.63;37.30;98791.06;4975489;28;20074;-92
2024/02/13 13:45:57;;;;;;;0.70;0.70;;;;;;;16.23;36.06;98779.06;4969878;28;20115;-92
2024/02/13 13:48:25;;;;;;;0.60;0.60;;;;;;;17.29;34.51;98779.63;4955805;28;20039;-92
2024/02/13 13:50:52;;;;;;;0.60;0.60;;;;;;;17.97;31.70;98773.53;4974939;28;20039;-94
2024/02/13 13:53:18;;;;;;;0.60;0.60;;;;;;;18.75;31.97;98780.66;4978214;28;20086;-92
2024/02/13 13:55:45;;;;;;;0.30;0.30;;;;;;;17.40;33.25;98781.50;4992921;28;20034;-94
2024/02/13 13:58:11;;;;;;;0.32;0.32;;;;;;;15.05;37.95;98785.06;4987706;28;20070;-91
2024/02/13 14:00:38;;;;;;;0.40;0.40;;;;;;;15.72;36.96;98795.69;4985367;28;20039;-92
2024/02/13 14:03:08;;;;;;;0.50;0.50;;;;;;;15.28;37.62;98778.16;4970279;28;20038;-90
2024/02/13 14:05:35;;;;;;;0.40;0.40;;;;;;;16.08;36.15;98779.84;5003921;28;20320;-94
2024/02/13 14:08:04;;;;;;;0.60;0.60;;;;;;;15.50;37.99;98781.97;4983727;28;20087;-91
2024/02/13 14:10:34;;;;;;;0.60;0.60;;;;;;;16.97;34.97;98782.25;4987745;28;20066;-92
2024/02/13 14:13:04;;;;;;;0.55;0.55;;;;;;;18.39;33.03;98780.66;4996162;28;20045;-94
2024/02/13 14:15:31;;;;;;;0.30;0.30;;;;;;;16.22;35.38;98793.41;4983102;28;20046;-91
2024/02/13 14:17:58;;;;;;;0.50;0.50;;;;;;;15.71;36.61;98799.22;4987646;28;20046;-91
2024/02/13 14:20:27;;;;;;;;;;;;;;;13.73;40.57;98800.94;4968625;28;20035;-91
2024/02/13 14:22:54;;;;;;;0.50;0.50;;;;;;;15.62;36.95;98806.31;4977867;28;19932;-93
2024/02/13 14:25:21;;;;;;;0.60;0.60;;;;;;;15.23;37.50;98806.75;4981687;28;20031;-94
2024/02/13 14:27:47;;;;;;;0.70;0.70;;;;;;;16.41;35.64;98797.16;4983213;28;20110;-92
2024/02/13 14:30:19;;;;;;;0.60;0.60;;;;;;;16.89;34.28;98799.25;4977018;28;20457;-90
2024/02/13 14:32:44;;;;;;;0.60;0.60;;;;;;;17.11;33.71;98794.88;4980964;28;20070;-94
2024/02/13 14:35:11;;;;;;;0.60;0.60;;;;;;;16.41;34.38;98795.34;4958547;28;20047;-92
2024/02/13 14:37:37;;;;;;;0.50;0.50;;;;;;;15.04;36.33;98800.28;4967745;28;20050;-92
2024/02/13 14:40:04;;;;;;;0.40;0.40;;;;;;;14.42;37.84;98805.66;4956561;28;20041;-88
2024/02/13 14:42:30;;;;;;;0.40;0.40;;;;;;;13.46;39.58;98804.94;4981024;28;20121;-89
2024/02/13 14:44:55;;;;;;;0.60;0.60;;;;;;;13.79;39.40;98803.72;4970398;28;20185;-92
2024/02/13 14:47:22;;;;;;;0.60;0.60;;;;;;;14.16;37.89;98807.91;4971716;28;20026;-91
2024/02/13 14:49:49;;;;;;;0.70;0.70;;;;;;;14.62;36.79;98800.63;4962340;28;20818;-92
2024/02/13 14:52:15;;;;;;;0.60;0.60;;;;;;;15.74;35.36;98794.78;4977089;28;20089;-90
2024/02/13 14:54:44;;;;;;;0.60;0.60;;;;;;;17.00;33.15;98796.59;4995852;28;20038;-93
2024/02/13 14:57:13;;;;;;;0.50;0.50;;;;;;;16.60;34.08;98798.16;4978602;28;20031;-94
2024/02/13 14:59:39;;;;;;;0.50;0.50;;;;;;;15.89;37.23;98804.78;4979119;28;20430;-93
2024/02/13 15:02:08;;;;;;;0.40;0.40;;;;;;;14.09;40.89;98808.72;4977646;28;21970;-92